Terminal Aerodrome Forecast
Issued by NWS

Home | Current Version | Previous Version | Text Only | Print | Product List | Glossary On
Versions: 1 2 3 4 5 6 7 8 9 10 11 12 13 14 15 16 17 18 19 20
000
FTUS43 KDLH 240804 AAB
TAFBRD
TAF AMD
KBRD 240804Z 2408/2506 19006KT P6SM BKN007
      TEMPO 2408/2412 3SM BR OVC005
     FM241400 27008KT P6SM SCT070
     FM241800 26013G23KT P6SM SCT040
     FM250000 26004KT P6SM SKC=

USA.gov is the U.S. government's official web portal to all federal, state and local government web resources and services.